Time;durP1;ratioP1;P1;durP2;ratioP2;P2;SDS_P1;SDS_P2;PMS_P1;PMS_P2;Temp;Humidity;BMP_temperature;BMP_pressure;BME280_temperature;BME280_humidity;BME280_pressure;Samples;Min_cycle;Max_cycle;Signal;HPM_P1;HPM_P2
2021/11/03 00:00:09;;;;;;;3.58;2.40;;;6.00;84.00;;;;;;5077502;28;20381;-74
2021/11/03 00:02:34;;;;;;;6.38;2.47;;;6.00;83.70;;;;;;5077327;28;20024;-74
2021/11/03 00:05:01;;;;;;;7.78;3.05;;;6.10;83.60;;;;;;5111278;28;20050;-74
2021/11/03 00:07:29;;;;;;;5.03;2.85;;;6.00;83.60;;;;;;5077475;28;20028;-74
2021/11/03 00:09:58;;;;;;;7.15;2.95;;;6.10;83.80;;;;;;5077244;28;20020;-75
2021/11/03 00:12:24;;;;;;;4.93;3.00;;;6.10;84.00;;;;;;5077363;28;20415;-75
2021/11/03 00:14:49;;;;;;;2.92;2.45;;;6.00;83.90;;;;;;5077296;28;20087;-75
2021/11/03 00:17:15;;;;;;;4.88;2.80;;;6.10;83.90;;;;;;5077217;28;20380;-75
2021/11/03 00:19:40;;;;;;;4.45;2.92;;;6.10;83.60;;;;;;5077274;28;20028;-75
2021/11/03 00:22:06;;;;;;;5.30;2.92;;;6.10;83.50;;;;;;5110934;28;20105;-75
2021/11/03 00:24:34;;;;;;;4.10;2.85;;;6.20;83.50;;;;;;5077160;28;20027;-75
2021/11/03 00:27:01;;;;;;;3.67;2.75;;;6.10;83.40;;;;;;5076928;28;20447;-75
2021/11/03 00:29:26;;;;;;;5.57;2.80;;;6.10;83.50;;;;;;5077111;28;20031;-75
2021/11/03 00:31:52;;;;;;;4.85;2.90;;;6.10;83.60;;;;;;5076905;28;20031;-75
2021/11/03 00:34:17;;;;;;;3.42;2.58;;;6.10;83.70;;;;;;5076975;28;20020;-75
2021/11/03 00:36:43;;;;;;;4.85;3.00;;;6.10;83.60;;;;;;5076910;28;20032;-75
2021/11/03 00:39:09;;;;;;;4.32;3.35;;;6.10;83.70;;;;;;5076772;28;20028;-75
2021/11/03 00:41:34;;;;;;;4.70;3.25;;;6.10;83.70;;;;;;5061647;28;20422;-75
2021/11/03 00:44:00;;;;;;;3.30;2.75;;;6.20;83.70;;;;;;5056659;28;20021;-75
2021/11/03 00:46:25;;;;;;;4.63;3.70;;;6.20;83.60;;;;;;5056701;28;20035;-75
2021/11/03 00:48:51;;;;;;;3.75;3.08;;;6.20;83.60;;;;;;5056305;28;20017;-74
2021/11/03 00:51:17;;;;;;;4.85;3.58;;;6.30;83.70;;;;;;5074351;28;20043;-74
2021/11/03 00:53:42;;;;;;;3.60;3.17;;;6.20;83.70;;;;;;5056445;28;20381;-74
2021/11/03 00:56:08;;;;;;;7.82;3.42;;;6.30;83.70;;;;;;5056453;28;20520;-74
2021/11/03 00:58:34;;;;;;;3.97;3.10;;;6.30;83.70;;;;;;5056292;28;20392;-74
2021/11/03 01:00:59;;;;;;;4.72;3.08;;;6.40;83.60;;;;;;5055354;28;20052;-73
2021/11/03 01:03:25;;;;;;;4.78;3.03;;;6.40;83.50;;;;;;5056476;28;20478;-74
2021/11/03 01:05:51;;;;;;;5.35;3.28;;;6.40;83.40;;;;;;5089633;28;20030;-73
2021/11/03 01:08:17;;;;;;;3.22;2.72;;;6.50;83.50;;;;;;5056014;28;20020;-74
2021/11/03 01:10:46;;;;;;;3.92;2.13;;;6.50;83.20;;;;;;5056256;28;20025;-75
2021/11/03 01:13:13;;;;;;;5.40;2.88;;;6.50;83.10;;;;;;5056082;28;20492;-74
2021/11/03 01:15:39;;;;;;;3.50;2.50;;;6.60;82.80;;;;;;5073893;28;20484;-74
2021/11/03 01:18:06;;;;;;;4.75;2.67;;;6.60;82.50;;;;;;5055926;28;20032;-73
2021/11/03 01:20:33;;;;;;;3.95;2.97;;;6.70;82.40;;;;;;5056002;28;20027;-74
2021/11/03 01:22:59;;;;;;;2.85;2.35;;;6.70;82.40;;;;;;5056062;28;20032;-74
2021/11/03 01:25:27;;;;;;;3.55;2.88;;;6.70;82.40;;;;;;5056110;28;20031;-74
2021/11/03 01:27:52;;;;;;;6.82;3.95;;;6.80;82.20;;;;;;5055948;28;20020;-74
2021/11/03 01:30:22;;;;;;;10.18;4.00;;;6.80;82.40;;;;;;5055875;28;20031;-76
2021/11/03 01:32:48;;;;;;;5.45;3.38;;;6.70;82.50;;;;;;5055789;28;20029;-75
2021/11/03 01:35:14;;;;;;;6.22;3.53;;;6.70;82.50;;;;;;5055650;28;20560;-74
2021/11/03 01:37:40;;;;;;;6.97;3.78;;;6.70;82.80;;;;;;5070106;28;20040;-75
2021/11/03 01:40:10;;;;;;;6.40;4.10;;;6.60;82.90;;;;;;5083556;28;20035;-77
2021/11/03 01:42:36;;;;;;;5.53;4.03;;;6.60;83.00;;;;;;5087126;28;20028;-75
2021/11/03 01:45:04;;;;;;;5.35;3.97;;;6.60;83.00;;;;;;5100908;28;20015;-75
2021/11/03 01:47:43;;;;;;;5.25;3.70;;;6.60;82.90;;;;;;5078799;28;20115;-75
2021/11/03 01:50:35;;;;;;;4.40;3.58;;;6.60;83.00;;;;;;5075462;28;20472;-75
2021/11/03 01:53:14;;;;;;;6.18;3.85;;;6.60;83.00;;;;;;5075494;28;20038;-75
2021/11/03 01:55:45;;;;;;;4.72;3.63;;;6.60;83.10;;;;;;5075178;28;20078;-75
2021/11/03 01:58:17;;;;;;;4.53;3.60;;;6.60;83.10;;;;;;5075251;28;20101;-75
2021/11/03 02:00:44;;;;;;;4.45;3.30;;;6.70;83.00;;;;;;5075313;28;20453;-76
2021/11/03 02:03:15;;;;;;;4.60;3.33;;;6.60;83.00;;;;;;5075283;28;20016;-76
2021/11/03 02:05:45;;;;;;;5.07;3.28;;;6.70;83.00;;;;;;5074886;28;20032;-76
2021/11/03 02:08:11;;;;;;;5.05;3.28;;;6.70;82.90;;;;;;5075041;28;20023;-76
2021/11/03 02:10:37;;;;;;;4.20;3.08;;;6.70;82.80;;;;;;5074881;28;20020;-77
2021/11/03 02:13:03;;;;;;;4.03;3.58;;;6.80;82.60;;;;;;5075252;28;20031;-77
2021/11/03 02:15:29;;;;;;;5.63;3.63;;;6.70;82.90;;;;;;5075287;28;20091;-76
2021/11/03 02:17:56;;;;;;;4.32;2.60;;;6.70;83.10;;;;;;5075058;28;20020;-76
2021/11/03 02:20:24;;;;;;;4.38;3.17;;;6.70;83.00;;;;;;5075149;28;20107;-76
2021/11/03 02:23:15;;;;;;;6.55;3.08;;;6.70;83.00;;;;;;5075032;28;20024;-76
2021/11/03 02:25:56;;;;;;;4.60;3.03;;;6.70;83.00;;;;;;5075172;28;20020;-77
2021/11/03 02:28:23;;;;;;;4.13;2.88;;;6.70;82.90;;;;;;5075192;28;20024;-76
2021/11/03 02:30:48;;;;;;;4.72;3.35;;;6.80;82.90;;;;;;5074802;28;20028;-77
2021/11/03 02:33:22;;;;;;;3.53;3.10;;;6.70;82.80;;;;;;5075065;28;20442;-78
2021/11/03 02:35:59;;;;;;;5.85;3.35;;;6.70;83.00;;;;;;5074803;28;20360;-78
2021/11/03 02:38:33;;;;;;;5.65;3.45;;;6.70;82.70;;;;;;5074905;28;20028;-75
2021/11/03 02:41:10;;;;;;;4.18;2.95;;;6.70;82.60;;;;;;5074778;28;20101;-75
2021/11/03 02:43:48;;;;;;;8.10;3.00;;;6.70;82.70;;;;;;5075044;28;20044;-76
2021/11/03 02:46:14;;;;;;;3.13;2.83;;;6.70;82.80;;;;;;5074837;28;20044;-75
2021/11/03 02:48:42;;;;;;;5.18;3.00;;;6.70;83.00;;;;;;5074961;28;20020;-76
2021/11/03 02:51:14;;;;;;;3.35;2.58;;;6.70;83.20;;;;;;5074692;28;20020;-75
2021/11/03 02:53:55;;;;;;;5.78;3.33;;;6.70;82.90;;;;;;5074934;28;20024;-74
2021/11/03 02:56:25;;;;;;;3.53;2.55;;;6.70;82.90;;;;;;5074923;28;20024;-75
2021/11/03 02:58:50;;;;;;;3.55;2.20;;;6.70;82.80;;;;;;5074808;28;20024;-76
2021/11/03 03:01:30;;;;;;;3.00;2.05;;;6.80;82.40;;;;;;5074771;28;20022;-76
2021/11/03 03:03:56;;;;;;;3.92;1.95;;;6.80;82.70;;;;;;5074633;28;20031;-75
2021/11/03 03:06:26;;;;;;;5.32;2.20;;;6.80;82.70;;;;;;5074880;28;20047;-76
2021/11/03 03:08:53;;;;;;;4.40;2.20;;;6.80;82.70;;;;;;5074744;28;20027;-76
2021/11/03 03:11:20;;;;;;;3.50;1.95;;;6.80;82.40;;;;;;5074686;28;20119;-76
2021/11/03 03:13:46;;;;;;;2.05;1.67;;;6.80;82.20;;;;;;5074594;28;20021;-76
2021/11/03 03:16:12;;;;;;;4.07;1.63;;;6.90;82.10;;;;;;5074537;28;20035;-76
2021/11/03 03:18:38;;;;;;;2.25;1.48;;;6.90;82.00;;;;;;5074562;28;20031;-75
2021/11/03 03:21:04;;;;;;;1.85;1.20;;;6.90;81.70;;;;;;5091374;28;20530;-75
2021/11/03 03:23:29;;;;;;;1.95;1.45;;;7.00;81.40;;;;;;5076351;28;20032;-75
2021/11/03 03:25:56;;;;;;;1.75;1.45;;;6.90;81.40;;;;;;5078192;28;20012;-76
2021/11/03 03:28:22;;;;;;;2.47;1.30;;;7.00;81.60;;;;;;5078239;28;20028;-76
2021/11/03 03:30:48;;;;;;;1.13;1.02;;;7.00;81.30;;;;;;5078214;28;20031;-76
2021/11/03 03:33:13;;;;;;;1.30;0.90;;;7.00;81.10;;;;;;5078136;28;20063;-76
2021/11/03 03:35:39;;;;;;;1.33;0.95;;;7.00;81.40;;;;;;5078153;28;20047;-76
2021/11/03 03:38:04;;;;;;;2.97;1.08;;;7.10;81.60;;;;;;5078044;28;20024;-76
2021/11/03 03:40:30;;;;;;;2.58;1.25;;;7.10;82.00;;;;;;5077996;28;20098;-76
2021/11/03 03:42:56;;;;;;;3.47;1.20;;;7.10;82.40;;;;;;5111795;28;20028;-75
2021/11/03 03:45:22;;;;;;;2.03;1.02;;;7.10;82.30;;;;;;5077960;28;20381;-75
2021/11/03 03:47:49;;;;;;;1.60;1.00;;;7.20;82.50;;;;;;5077830;28;20027;-77
2021/11/03 03:50:15;;;;;;;2.00;0.88;;;7.20;82.30;;;;;;5077703;28;20028;-75
2021/11/03 03:52:41;;;;;;;1.35;0.93;;;7.20;82.10;;;;;;5077807;28;20119;-75
2021/11/03 03:55:07;;;;;;;2.08;1.13;;;7.30;82.40;;;;;;5077618;28;20365;-75
2021/11/03 03:57:33;;;;;;;2.90;1.30;;;7.30;82.70;;;;;;5095855;28;20028;-75
2021/11/03 03:59:59;;;;;;;1.00;0.90;;;7.30;82.50;;;;;;5077585;28;20023;-76
2021/11/03 04:02:24;;;;;;;1.77;0.80;;;7.30;82.20;;;;;;5077634;28;20106;-76
2021/11/03 04:04:50;;;;;;;2.28;0.80;;;7.40;79.50;;;;;;5077601;28;20365;-75
2021/11/03 04:07:15;;;;;;;3.38;0.70;;;7.30;79.20;;;;;;5077749;28;20031;-75
2021/11/03 04:09:41;;;;;;;0.80;0.60;;;7.30;79.70;;;;;;5079551;28;20527;-74
2021/11/03 04:12:07;;;;;;;1.88;0.60;;;7.30;79.80;;;;;;5077573;28;20031;-74
2021/11/03 04:14:32;;;;;;;1.38;0.80;;;7.30;80.00;;;;;;5077379;28;20047;-74
2021/11/03 04:16:58;;;;;;;1.15;0.88;;;7.40;80.10;;;;;;5077267;28;20073;-74
2021/11/03 04:19:24;;;;;;;2.22;0.55;;;7.30;79.90;;;;;;5077313;28;20028;-74
2021/11/03 04:21:49;;;;;;;0.57;0.57;;;7.30;79.40;;;;;;5077257;28;20024;-75
2021/11/03 04:24:15;;;;;;;2.95;0.70;;;7.40;79.80;;;;;;5077133;28;20023;-74
2021/11/03 04:26:45;;;;;;;0.50;0.50;;;7.40;80.00;;;;;;5077100;28;20030;-74
2021/11/03 04:29:11;;;;;;;1.85;0.50;;;7.40;80.40;;;;;;5076970;28;20016;-74
2021/11/03 04:31:37;;;;;;;1.50;0.80;;;7.40;80.80;;;;;;5076878;28;20032;-74
2021/11/03 04:34:03;;;;;;;2.58;0.88;;;7.40;80.80;;;;;;5076718;28;20027;-74
2021/11/03 04:36:28;;;;;;;1.98;0.90;;;7.40;80.80;;;;;;5077022;28;20028;-74
2021/11/03 04:38:56;;;;;;;2.17;0.75;;;7.40;80.80;;;;;;5110611;28;20400;-74
2021/11/03 04:41:22;;;;;;;2.90;1.42;;;7.40;81.20;;;;;;5076773;28;20036;-74
2021/11/03 04:43:48;;;;;;;4.85;2.30;;;7.40;81.50;;;;;;5076716;28;20054;-76
2021/11/03 04:46:15;;;;;;;3.15;1.60;;;7.40;80.70;;;;;;5076566;28;20411;-73
2021/11/03 04:48:41;;;;;;;3.28;1.70;;;7.40;80.10;;;;;;5076561;28;20023;-76
2021/11/03 04:51:07;;;;;;;6.80;1.90;;;7.40;79.90;;;;;;5076452;28;20070;-75
2021/11/03 04:53:33;;;;;;;2.50;1.52;;;7.40;80.10;;;;;;5076596;28;20090;-75
2021/11/03 04:56:00;;;;;;;4.45;1.50;;;7.40;80.30;;;;;;5076444;28;20469;-75
2021/11/03 04:58:26;;;;;;;2.17;1.20;;;7.40;79.90;;;;;;5076379;28;20070;-75
2021/11/03 05:00:52;;;;;;;3.53;1.35;;;7.30;79.70;;;;;;5076172;28;20055;-74
2021/11/03 05:03:18;;;;;;;5.13;1.60;;;7.30;80.10;;;;;;5109876;28;20035;-76
2021/11/03 05:05:44;;;;;;;2.60;1.40;;;7.30;79.70;;;;;;5076107;28;20020;-78
2021/11/03 05:08:11;;;;;;;2.30;1.40;;;7.20;79.70;;;;;;5076216;28;20528;-77
2021/11/03 05:10:37;;;;;;;2.83;1.40;;;7.30;79.80;;;;;;5076127;28;20027;-77
2021/11/03 05:13:03;;;;;;;1.98;1.02;;;7.30;79.50;;;;;;5075954;28;20031;-77
2021/11/03 05:15:29;;;;;;;3.13;1.20;;;7.20;79.20;;;;;;5076262;28;20431;-77
2021/11/03 05:17:54;;;;;;;1.75;1.10;;;7.20;78.80;;;;;;5076007;28;20020;-77
2021/11/03 05:20:21;;;;;;;3.33;1.25;;;7.20;79.30;;;;;;5076234;28;20020;-77
2021/11/03 05:22:47;;;;;;;2.67;0.82;;;7.20;76.90;;;;;;5109781;28;20070;-77
2021/11/03 05:25:17;;;;;;;0.90;0.65;;;7.30;76.80;;;;;;5094124;28;20016;-77
2021/11/03 05:27:42;;;;;;;1.38;0.80;;;7.30;75.50;;;;;;5075899;28;20089;-77
2021/11/03 05:30:09;;;;;;;1.83;0.85;;;7.30;74.70;;;;;;5075807;28;20473;-77
2021/11/03 05:32:35;;;;;;;2.72;0.73;;;7.40;73.20;;;;;;5075667;28;20032;-77
2021/11/03 05:35:00;;;;;;;1.65;0.70;;;7.40;73.20;;;;;;5075774;28;20358;-77
2021/11/03 05:37:27;;;;;;;2.75;1.10;;;7.40;73.80;;;;;;5109555;28;20484;-77
2021/11/03 05:39:53;;;;;;;1.83;0.93;;;7.30;74.20;;;;;;5075286;28;20020;-77
2021/11/03 05:42:19;;;;;;;1.60;0.88;;;7.40;75.00;;;;;;5109513;28;20039;-77
2021/11/03 05:44:46;;;;;;;1.70;0.90;;;7.30;75.30;;;;;;5075401;28;20417;-77
2021/11/03 05:47:20;;;;;;;2.58;1.25;;;7.20;75.80;;;;;;5074332;28;20032;-77
2021/11/03 05:49:45;;;;;;;1.67;1.10;;;7.20;75.70;;;;;;5075366;28;20036;-77
2021/11/03 05:52:12;;;;;;;1.73;0.77;;;7.10;75.30;;;;;;5075262;28;20483;-77
2021/11/03 05:54:37;;;;;;;1.45;0.68;;;7.00;75.20;;;;;;5075365;28;20031;-78
2021/11/03 05:57:03;;;;;;;2.35;1.33;;;7.00;75.30;;;;;;5075338;28;20036;-77
2021/11/03 05:59:30;;;;;;;2.10;0.90;;;7.00;74.70;;;;;;5075258;28;20031;-77
2021/11/03 06:01:56;;;;;;;1.95;0.82;;;7.00;75.00;;;;;;5075256;28;20031;-76
2021/11/03 06:04:22;;;;;;;4.63;1.60;;;6.90;75.40;;;;;;5075532;28;20440;-77
2021/11/03 06:06:47;;;;;;;1.70;1.00;;;6.90;76.00;;;;;;5075223;28;20059;-77
2021/11/03 06:09:13;;;;;;;3.38;1.00;;;6.90;75.80;;;;;;5075225;28;20023;-77
2021/11/03 06:11:40;;;;;;;1.95;0.95;;;6.80;75.90;;;;;;5075010;28;20042;-77
2021/11/03 06:14:07;;;;;;;5.00;1.10;;;6.80;76.00;;;;;;5074930;28;20510;-77
2021/11/03 06:16:33;;;;;;;4.75;1.63;;;6.80;76.30;;;;;;5108880;28;20440;-76
2021/11/03 06:18:59;;;;;;;2.80;1.33;;;6.80;76.30;;;;;;5074902;28;20036;-76
2021/11/03 06:21:25;;;;;;;2.50;1.30;;;6.70;76.30;;;;;;5093142;28;20483;-77
2021/11/03 06:23:50;;;;;;;4.40;1.67;;;6.70;76.50;;;;;;5074768;28;20123;-76
2021/11/03 06:26:19;;;;;;;5.60;1.90;;;6.70;76.70;;;;;;5074831;28;20082;-77
2021/11/03 06:28:45;;;;;;;2.30;1.15;;;6.70;75.90;;;;;;5108772;28;20028;-77
2021/11/03 06:31:11;;;;;;;1.58;0.98;;;6.70;75.70;;;;;;5074577;28;20168;-76
2021/11/03 06:33:36;;;;;;;1.73;0.80;;;6.70;75.30;;;;;;5074922;28;20035;-77
2021/11/03 06:36:05;;;;;;;1.58;1.00;;;6.70;75.30;;;;;;5074610;28;20506;-77
2021/11/03 06:38:31;;;;;;;3.92;1.10;;;6.70;74.60;;;;;;5074641;28;20024;-77
2021/11/03 06:40:57;;;;;;;2.25;1.15;;;6.80;74.70;;;;;;5074520;28;20169;-76
2021/11/03 06:43:23;;;;;;;0.85;0.63;;;6.80;74.50;;;;;;5074700;28;20020;-76
2021/11/03 06:45:49;;;;;;;1.38;1.05;;;6.80;74.20;;;;;;5092655;28;20392;-77
2021/11/03 06:48:14;;;;;;;12.13;2.15;;;6.80;74.30;;;;;;5093018;28;20020;-74
2021/11/03 06:50:41;;;;;;;3.03;1.80;;;7.10;85.10;;;;;;5074471;28;20028;-74
2021/11/03 06:53:10;;;;;;;3.28;1.35;;;7.50;84.10;;;;;;5074634;28;20101;-80
2021/11/03 06:55:38;;;;;;;2.83;1.13;;;7.60;78.10;;;;;;5092677;28;20541;-73
2021/11/03 06:58:04;;;;;;;3.47;1.10;;;8.00;74.10;;;;;;5093697;28;20053;-73
2021/11/03 07:00:35;;;;;;;2.22;1.00;;;8.10;70.50;;;;;;5096384;28;20055;-74
2021/11/03 07:03:01;;;;;;;1.02;0.70;;;8.20;68.00;;;;;;5096857;28;20032;-73
2021/11/03 07:05:28;;;;;;;1.75;0.77;;;8.20;68.20;;;;;;5096663;28;20495;-73
2021/11/03 07:07:53;;;;;;;1.40;0.60;;;8.40;68.40;;;;;;5096451;28;20025;-73
2021/11/03 07:10:27;;;;;;;2.95;0.40;;;8.60;67.50;;;;;;5096645;28;20582;-73
2021/11/03 07:12:53;;;;;;;1.27;0.70;;;8.70;67.00;;;;;;5096489;28;20046;-73
2021/11/03 07:15:19;;;;;;;1.33;0.65;;;8.90;65.80;;;;;;5078175;28;20122;-73
2021/11/03 07:17:45;;;;;;;1.65;0.60;;;8.80;64.60;;;;;;5096291;28;20024;-74
2021/11/03 07:20:12;;;;;;;2.22;0.80;;;8.70;64.70;;;;;;5096517;28;20472;-73
2021/11/03 07:22:37;;;;;;;1.48;0.70;;;8.90;65.80;;;;;;5096389;28;20561;-73
2021/11/03 07:25:05;;;;;;;2.83;0.68;;;9.20;64.70;;;;;;5096190;28;20028;-73
2021/11/03 07:27:30;;;;;;;3.03;0.82;;;9.60;64.80;;;;;;5096180;28;20361;-73
2021/11/03 07:29:56;;;;;;;1.02;0.77;;;10.10;63.40;;;;;;5096222;28;20039;-73
2021/11/03 07:32:22;;;;;;;4.03;1.08;;;10.40;61.60;;;;;;5095864;28;20112;-73
2021/11/03 07:34:47;;;;;;;1.38;0.60;;;10.50;60.30;;;;;;5077850;28;20134;-73
2021/11/03 07:37:13;;;;;;;0.88;0.52;;;10.70;59.70;;;;;;5096058;28;20035;-73
2021/11/03 07:39:38;;;;;;;1.77;0.65;;;10.50;57.70;;;;;;5096139;28;20468;-74
2021/11/03 07:42:04;;;;;;;2.08;1.13;;;10.30;58.00;;;;;;5095699;28;20052;-75
2021/11/03 07:44:30;;;;;;;2.20;1.10;;;10.10;59.50;;;;;;5096034;28;20341;-74
2021/11/03 07:46:55;;;;;;;1.02;0.55;;;9.80;59.60;;;;;;5095680;28;20031;-74
2021/11/03 07:49:21;;;;;;;0.93;0.57;;;9.70;59.70;;;;;;5095846;28;20034;-73
2021/11/03 07:51:47;;;;;;;0.63;0.63;;;9.50;60.90;;;;;;5095842;28;20047;-74
2021/11/03 07:54:12;;;;;;;1.75;0.77;;;9.40;60.30;;;;;;5095844;28;20372;-72
2021/11/03 07:56:40;;;;;;;0.98;0.60;;;9.50;61.20;;;;;;5095752;28;20032;-73
2021/11/03 07:59:07;;;;;;;1.90;0.77;;;9.30;61.10;;;;;;5095562;28;20115;-74
2021/11/03 08:01:32;;;;;;;0.90;0.55;;;9.40;61.30;;;;;;5095403;28;20103;-73
2021/11/03 08:03:58;;;;;;;0.85;0.50;;;9.40;61.70;;;;;;5095650;28;20103;-73
2021/11/03 08:06:24;;;;;;;1.25;0.57;;;9.60;62.00;;;;;;5095565;28;20028;-73
2021/11/03 08:09:13;;;;;;;1.48;0.50;;;9.70;61.90;;;;;;5094905;28;20496;-73
2021/11/03 08:14:14;;;;;;;1.50;0.90;;;10.10;60.10;;;;;;5095500;28;20051;-72
2021/11/03 08:16:58;;;;;;;1.60;1.30;;;10.00;59.30;;;;;;5095449;28;20028;-72
2021/11/03 08:19:48;;;;;;;1.98;1.08;;;10.00;59.30;;;;;;5095446;28;20490;-73
2021/11/03 08:22:20;;;;;;;2.75;1.23;;;10.00;59.60;;;;;;5095386;28;20050;-73
2021/11/03 08:24:46;;;;;;;4.13;1.55;;;10.00;59.40;;;;;;5095424;28;20017;-74
2021/11/03 08:27:12;;;;;;;1.80;1.10;;;9.80;59.80;;;;;;5095196;28;20043;-75
2021/11/03 08:29:41;;;;;;;3.53;1.38;;;9.80;60.30;;;;;;5095665;28;20032;-74
2021/11/03 08:32:11;;;;;;;3.00;0.95;;;9.90;61.00;;;;;;5095642;28;20043;-72
2021/11/03 08:34:37;;;;;;;2.55;0.90;;;10.00;59.60;;;;;;5095861;28;20020;-72
2021/11/03 08:37:27;;;;;;;3.38;1.17;;;9.90;59.30;;;;;;5095582;28;20032;-72
2021/11/03 08:39:55;;;;;;;2.80;1.20;;;10.00;59.70;;;;;;5098471;28;20021;-73
2021/11/03 08:42:22;;;;;;;3.50;1.20;;;10.10;59.80;;;;;;5099265;28;20048;-72
2021/11/03 08:44:51;;;;;;;4.43;1.20;;;9.90;60.50;;;;;;5096858;28;20386;-73
2021/11/03 08:47:18;;;;;;;2.03;0.98;;;9.90;61.90;;;;;;5096603;28;20016;-72
2021/11/03 08:49:43;;;;;;;3.92;0.98;;;9.90;62.30;;;;;;5094659;28;20027;-72
2021/11/03 08:52:10;;;;;;;1.50;0.88;;;9.60;62.80;;;;;;5094500;28;20036;-72
2021/11/03 08:54:40;;;;;;;4.18;0.90;;;9.40;64.00;;;;;;5076313;28;20056;-73
2021/11/03 08:57:07;;;;;;;2.78;1.27;;;9.40;64.80;;;;;;5094374;28;20066;-73
2021/11/03 08:59:33;;;;;;;3.08;1.42;;;9.50;64.80;;;;;;5094579;28;20020;-72
2021/11/03 09:01:58;;;;;;;3.75;1.17;;;9.50;64.60;;;;;;5094431;28;20090;-73
2021/11/03 09:04:24;;;;;;;4.43;1.40;;;9.50;64.50;;;;;;5076510;28;20024;-78
2021/11/03 09:06:50;;;;;;;1.65;1.15;;;9.70;64.80;;;;;;5107546;28;20069;-78
2021/11/03 09:09:16;;;;;;;2.95;1.50;;;9.80;63.40;;;;;;5099330;28;20024;-76
2021/11/03 09:11:42;;;;;;;3.28;0.70;;;9.70;62.00;;;;;;5094272;28;20047;-76
2021/11/03 09:14:07;;;;;;;1.95;0.90;;;9.80;62.30;;;;;;5094427;28;20551;-76
2021/11/03 09:16:33;;;;;;;2.25;0.70;;;9.70;62.10;;;;;;5075289;28;20028;-77
2021/11/03 09:18:59;;;;;;;2.55;1.30;;;9.80;61.90;;;;;;5092403;28;20020;-76
2021/11/03 09:21:26;;;;;;;2.90;1.42;;;9.80;62.50;;;;;;5092216;28;20024;-75
2021/11/03 09:23:51;;;;;;;2.78;1.10;;;9.80;62.90;;;;;;5093651;28;20031;-76
2021/11/03 09:26:21;;;;;;;3.15;1.48;;;9.80;62.90;;;;;;5094040;28;20115;-76
2021/11/03 09:28:46;;;;;;;4.03;1.30;;;9.70;62.60;;;;;;5093970;28;20027;-76
2021/11/03 09:31:13;;;;;;;1.63;0.93;;;9.70;61.90;;;;;;5093726;28;20024;-76
2021/11/03 09:33:40;;;;;;;3.38;0.82;;;9.70;62.50;;;;;;5093703;28;20031;-77
2021/11/03 09:36:10;;;;;;;3.55;0.95;;;9.70;62.20;;;;;;5093497;28;20050;-77
2021/11/03 09:38:37;;;;;;;1.77;0.73;;;9.70;62.70;;;;;;5093508;28;20035;-77
2021/11/03 09:41:11;;;;;;;5.32;1.02;;;9.80;63.60;;;;;;5093220;28;20397;-76
2021/11/03 09:43:47;;;;;;;1.00;0.70;;;9.80;64.30;;;;;;5093503;28;20028;-75
2021/11/03 09:46:27;;;;;;;;;;;9.70;66.50;;;;;;5093923;28;20102;-75
2021/11/03 09:49:14;;;;;;;2.55;1.30;;;9.60;67.10;;;;;;5093388;28;19908;-75
2021/11/03 09:51:46;;;;;;;3.28;1.23;;;9.50;67.80;;;;;;5093474;28;20449;-76
2021/11/03 09:54:19;;;;;;;6.32;2.00;;;9.50;67.40;;;;;;5093641;28;20421;-76
2021/11/03 09:56:58;;;;;;;7.53;2.67;;;9.50;70.70;;;;;;5093445;28;20550;-76
2021/11/03 09:59:37;;;;;;;5.43;2.45;;;9.50;72.10;;;;;;5093280;28;20070;-76
2021/11/03 10:02:35;;;;;;;7.90;3.05;;;9.50;72.80;;;;;;5092718;28;20108;-76
2021/11/03 10:05:23;;;;;;;4.68;2.13;;;9.50;72.70;;;;;;5086275;28;20028;-76
2021/11/03 10:07:52;;;;;;;5.35;2.60;;;9.60;72.30;;;;;;5092969;28;20028;-75
2021/11/03 10:10:20;;;;;;;4.75;2.95;;;9.60;72.70;;;;;;5093046;28;20035;-75
2021/11/03 10:12:46;;;;;;;4.57;2.80;;;9.60;71.50;;;;;;5092982;28;20119;-76
2021/11/03 10:15:17;;;;;;;4.78;2.30;;;9.70;70.70;;;;;;5092808;28;20020;-75
2021/11/03 10:17:43;;;;;;;3.15;1.80;;;9.70;69.60;;;;;;5093198;28;20430;-76
2021/11/03 10:20:32;;;;;;;5.65;2.47;;;9.70;67.20;;;;;;5092895;28;20099;-75
2021/11/03 10:23:19;;;;;;;4.57;2.45;;;9.80;66.60;;;;;;5092614;28;20101;-76
2021/11/03 10:26:05;;;;;;;5.05;2.20;;;9.90;68.10;;;;;;5093094;28;20066;-76
2021/11/03 10:28:44;;;;;;;4.22;2.25;;;9.70;68.90;;;;;;5093038;28;20472;-76
2021/11/03 10:31:34;;;;;;;7.47;2.80;;;9.70;69.40;;;;;;5074453;28;20430;-77
2021/11/03 10:34:04;;;;;;;5.30;2.72;;;9.80;70.40;;;;;;5092574;28;20056;-75
2021/11/03 10:36:43;;;;;;;4.82;2.30;;;9.70;70.50;;;;;;5092803;28;20035;-76
2021/11/03 10:39:28;;;;;;;5.50;2.47;;;9.70;70.50;;;;;;5092713;28;20024;-76
2021/11/03 10:42:03;;;;;;;4.20;2.10;;;9.80;70.40;;;;;;5091832;28;20040;-77
2021/11/03 10:44:32;;;;;;;5.10;2.42;;;9.90;71.40;;;;;;5092504;28;20016;-76
2021/11/03 10:47:14;;;;;;;7.30;2.40;;;9.90;69.70;;;;;;5092707;28;20020;-77
2021/11/03 10:50:04;;;;;;;4.90;2.45;;;10.00;70.00;;;;;;5092669;28;20028;-77
2021/11/03 10:52:33;;;;;;;3.28;1.92;;;10.00;69.60;;;;;;5091559;28;20048;-77
2021/11/03 10:55:36;;;;;;;3.60;2.00;;;10.20;69.30;;;;;;5092361;28;20103;-76
2021/11/03 10:58:13;;;;;;;3.95;1.42;;;10.30;66.90;;;;;;5092700;28;20493;-77
2021/11/03 11:00:44;;;;;;;1.73;1.08;;;10.40;63.50;;;;;;5092964;28;20024;-77
2021/11/03 11:03:19;;;;;;;1.70;1.20;;;10.50;63.10;;;;;;5092779;28;20472;-76
2021/11/03 11:05:49;;;;;;;2.40;1.25;;;10.60;62.90;;;;;;5093039;28;20042;-76
2021/11/03 11:08:27;;;;;;;3.35;1.75;;;10.80;62.90;;;;;;5092685;28;20074;-75
2021/11/03 11:11:05;;;;;;;3.92;1.50;;;10.90;63.30;;;;;;5074654;28;20421;-76
2021/11/03 11:13:41;;;;;;;4.10;2.10;;;11.10;64.20;;;;;;5092507;28;20058;-76
2021/11/03 11:16:12;;;;;;;4.80;3.10;;;11.10;64.90;;;;;;5092249;28;20021;-76
2021/11/03 11:18:50;;;;;;;6.63;3.60;;;11.30;65.20;;;;;;5093696;28;20028;-76
2021/11/03 11:21:25;;;;;;;5.78;2.88;;;11.30;64.60;;;;;;5092167;28;20027;-76
2021/11/03 11:23:57;;;;;;;2.17;1.00;;;11.30;62.60;;;;;;5092246;28;20031;-76
2021/11/03 11:26:43;;;;;;;1.65;0.63;;;11.20;58.80;;;;;;5094945;28;20464;-77
2021/11/03 11:29:20;;;;;;;0.43;0.40;;;11.10;56.80;;;;;;5093114;28;20028;-77
2021/11/03 11:31:56;;;;;;;1.38;0.70;;;10.80;57.60;;;;;;5092014;28;20082;-77
2021/11/03 11:34:43;;;;;;;5.45;1.88;;;10.80;58.50;;;;;;5091179;28;20016;-77
2021/11/03 11:37:41;;;;;;;3.40;1.63;;;10.70;60.80;;;;;;5085320;28;20024;-78
2021/11/03 11:40:35;;;;;;;3.00;1.50;;;10.70;62.30;;;;;;5094134;28;20040;-76
2021/11/03 11:43:32;;;;;;;2.85;1.30;;;10.50;61.50;;;;;;5099652;28;20020;-75
2021/11/03 11:46:03;;;;;;;3.10;1.60;;;10.50;61.70;;;;;;5096136;28;20024;-79
2021/11/03 11:48:33;;;;;;;3.35;1.60;;;10.40;62.60;;;;;;5096071;28;20054;-76
2021/11/03 11:51:34;;;;;;;3.20;1.42;;;10.30;63.60;;;;;;5095424;28;20388;-74
2021/11/03 11:54:01;;;;;;;2.58;1.58;;;10.30;64.20;;;;;;5075024;28;20097;-75
2021/11/03 11:56:38;;;;;;;2.58;1.55;;;10.30;65.80;;;;;;5096055;28;20031;-74
2021/11/03 11:59:21;;;;;;;2.72;1.55;;;10.20;66.30;;;;;;5095361;28;20047;-74
2021/11/03 12:01:46;;;;;;;3.63;1.73;;;10.20;67.50;;;;;;5095553;28;20020;-76
2021/11/03 12:04:19;;;;;;;2.25;1.55;;;10.10;69.00;;;;;;5095600;28;20085;-79
2021/11/03 12:06:59;;;;;;;3.20;2.00;;;10.20;69.00;;;;;;5095807;28;20035;-78
2021/11/03 12:10:04;;;;;;;5.72;2.20;;;10.10;70.30;;;;;;5095851;28;20035;-77
2021/11/03 12:12:31;;;;;;;3.53;2.38;;;10.10;70.60;;;;;;5077228;28;20035;-76
2021/11/03 12:14:58;;;;;;;2.40;1.52;;;10.00;72.60;;;;;;5095168;28;20027;-78
2021/11/03 12:17:42;;;;;;;3.70;1.80;;;9.80;73.40;;;;;;5095243;28;20027;-77
2021/11/03 12:20:26;;;;;;;2.50;1.80;;;9.80;74.40;;;;;;5095267;28;20074;-76
2021/11/03 12:23:00;;;;;;;3.28;1.90;;;9.80;74.90;;;;;;5077064;28;20023;-78
2021/11/03 12:25:25;;;;;;;3.13;1.80;;;9.70;76.40;;;;;;5095157;28;20024;-76
2021/11/03 12:28:19;;;;;;;3.85;1.20;;;9.70;77.00;;;;;;5095228;28;20024;-77
2021/11/03 12:31:07;;;;;;;2.97;1.75;;;9.70;76.80;;;;;;5075853;28;20043;-82
2021/11/03 12:34:04;;;;;;;5.18;1.85;;;9.60;78.30;;;;;;5095110;28;20046;-79
2021/11/03 12:36:50;;;;;;;3.97;2.05;;;9.50;79.30;;;;;;5094245;28;20354;-77
2021/11/03 12:39:30;;;;;;;2.00;1.33;;;9.50;79.70;;;;;;5076917;28;20028;-75
2021/11/03 12:42:32;;;;;;;2.75;1.40;;;9.60;79.00;;;;;;5098104;28;20044;-77
2021/11/03 12:45:20;;;;;;;4.05;2.60;;;9.70;79.20;;;;;;5101731;28;20024;-80
2021/11/03 12:47:55;;;;;;;3.78;2.10;;;9.80;79.80;;;;;;5101303;28;20102;-79
2021/11/03 12:50:21;;;;;;;;;;;9.80;79.50;;;;;;5115514;28;20084;-75
2021/11/03 12:52:48;;;;;;;;;;;9.80;79.60;;;;;;5116041;28;19915;-75
2021/11/03 12:55:32;;;;;;;5.88;2.85;;;9.90;79.90;;;;;;5115056;28;19904;-78
2021/11/03 12:58:27;;;;;;;5.40;2.53;;;9.90;80.10;;;;;;5119014;28;20352;-80
2021/11/03 13:00:52;;;;;;;5.50;3.22;;;9.90;80.70;;;;;;5115211;28;20027;-76
2021/11/03 13:03:26;;;;;;;5.97;2.60;;;9.90;81.10;;;;;;5114948;28;20163;-78
2021/11/03 13:05:52;;;;;;;4.13;2.05;;;9.90;81.20;;;;;;5096342;28;20092;-77
2021/11/03 13:08:23;;;;;;;4.22;1.80;;;9.90;81.20;;;;;;5114741;28;20428;-77
2021/11/03 13:11:05;;;;;;;3.85;2.13;;;9.90;81.10;;;;;;5114684;28;20031;-76
2021/11/03 13:13:31;;;;;;;1.60;1.30;;;9.90;81.10;;;;;;5114819;28;20033;-77